KLDM

Mason County Airport

Ludington, Michigan, USA
METAR KLDM 230055Z AUTO 20003KT 10SM BKN095 08/04 A2995 RMK AO2 T00800044
Observed Flight Rules
Oct-23 @ 00:55 UTC (22 minutes ago) Visual Flight Rules
Wind Visibility Clouds
200° at 3 knots 10 miles
  • Broken at 9,500' AGL
Temperatures Readings
Current 8°C / 46°F
Dewpoint 4°C / 39°F
Humidity 76%
Altimeter 29.95" Hg
Pressure 1014 hPa
Elevation 197
METAR KLDM 230055Z AUTO 20003KT 10SM BKN095 08/04 A2995 RMK AO2 T00800044
Observed Flight Rules
Oct-23 @ 00:55 UTC
(22 minutes ago)
VFR
Wind Visibility
200° at 3 knots 10 miles
Clouds
  • Broken at 9,500' AGL
Temperature Dewpoint
8°C / 46°F 4°C / 39°F
Humidity Altimeter Pressure
76% 29.95" Hg 1014 hPa